Terminal Aerodrome Forecast
Issued by NWS Green Bay, WI

Home | Current Version | Previous Version | Text Only | Print | Product List | Glossary Off
Versions: 1 2 3 4 5 6 7 8 9 10 11 12 13 14 15 16 17 18 19 20 21 22 23 24 25 26 27 28 29 30 31 32 33 34 35 36 37 38 39 40 41 42 43 44 45 46 47 48

000
FTUS43 KGRB 121152 AAA
TAFGRB
TAF AMD
KGRB 121152Z 1212/1312 32012KT P6SM SCT030 BKN045
     FM121400 32013G19KT P6SM SCT045
     FM130000 31006KT P6SM SCT040
     FM131000 10005KT 5SM -SN BKN025=

USA.gov is the U.S. government's official web portal to all federal, state and local government web resources and services.